Time;durP1;ratioP1;P1;durP2;ratioP2;P2;SDS_P1;SDS_P2;PMS_P1;PMS_P2;Temp;Humidity;BMP_temperature;BMP_pressure;BME280_temperature;BME280_humidity;BME280_pressure;Samples;Min_cycle;Max_cycle;Signal;HPM_P1;HPM_P2
2022/11/25 00:01:21;;;;;;;74.47;41.47;;;;;;;5.10;75.99;100213.00;4845672;28;100081;-90
2022/11/25 00:03:47;;;;;;;71.47;41.70;;;;;;;5.18;75.98;100226.75;4853514;28;96916;-89
2022/11/25 00:06:15;;;;;;;71.07;40.90;;;;;;;5.20;76.12;100233.66;4863312;28;96798;-91
2022/11/25 00:08:42;;;;;;;69.97;39.30;;;;;;;5.21;76.28;100235.38;4872110;28;100955;-90
2022/11/25 00:11:08;;;;;;;68.20;39.53;;;;;;;5.16;76.34;100225.91;4871462;28;100492;-90
2022/11/25 00:13:34;;;;;;;74.27;41.87;;;;;;;5.20;76.44;100233.66;4845698;28;96805;-90
2022/11/25 00:16:01;;;;;;;78.73;41.17;;;;;;;5.15;76.53;100222.47;4846614;28;96806;-89
2022/11/25 00:18:27;;;;;;;70.10;39.90;;;;;;;5.22;76.52;100234.50;4863630;28;101230;-89
2022/11/25 00:20:52;;;;;;;74.37;41.87;;;;;;;5.33;75.91;100236.97;4851192;28;101795;-90
2022/11/25 00:23:18;;;;;;;72.37;40.93;;;;;;;5.09;76.06;100198.25;4842898;28;97110;-90
2022/11/25 00:25:43;;;;;;;65.53;39.20;;;;;;;5.20;76.16;100222.38;4842886;28;97141;-90
2022/11/25 00:28:09;;;;;;;67.00;39.60;;;;;;;5.14;76.13;100210.31;4845644;29;101095;-90
2022/11/25 00:30:34;;;;;;;63.17;38.73;;;;;;;5.18;76.43;100226.75;4842871;28;101606;-89
2022/11/25 00:33:00;;;;;;;66.27;39.27;;;;;;;5.16;76.55;100223.31;4850239;29;97032;-89
2022/11/25 00:35:25;;;;;;;66.43;36.83;;;;;;;5.20;76.39;100232.78;4846548;28;97376;-90
2022/11/25 00:37:51;;;;;;;65.93;39.30;;;;;;;5.21;76.48;100239.72;4867079;28;98429;-90
2022/11/25 00:40:16;;;;;;;62.10;36.20;;;;;;;5.26;76.58;100250.06;4856040;28;101528;-89
2022/11/25 00:45:26;;;;;;;59.00;35.10;;;;;;;5.22;76.74;100233.63;4865761;28;96701;-90
2022/11/25 00:47:52;;;;;;;56.13;33.07;;;;;;;5.32;76.66;100245.63;4844034;28;100225;-89
2022/11/25 00:50:17;;;;;;;55.47;32.50;;;;;;;5.31;76.58;100243.91;4863464;28;101351;-89
2022/11/25 00:52:43;;;;;;;50.57;32.27;;;;;;;5.29;76.56;100252.63;4841539;28;97139;-89
2022/11/25 00:55:08;;;;;;;52.60;32.90;;;;;;;5.27;77.18;100242.25;4844699;29;97143;-89
2022/11/25 00:57:34;;;;;;;51.60;32.10;;;;;;;5.33;76.93;100256.94;4853944;28;101584;-89
2022/11/25 00:59:59;;;;;;;54.37;31.83;;;;;;;5.35;77.17;100252.53;4850586;28;101359;-90
2022/11/25 01:02:25;;;;;;;58.30;33.87;;;;;;;5.24;76.93;100231.88;4872657;28;97077;-90
2022/11/25 01:04:50;;;;;;;55.67;33.40;;;;;;;5.43;77.03;100254.16;4862174;28;98177;-89
2022/11/25 01:07:16;;;;;;;55.63;33.93;;;;;;;5.37;76.98;100249.03;4862464;28;101436;-90
2022/11/25 01:09:42;;;;;;;55.80;32.93;;;;;;;5.39;77.28;100262.03;4862529;28;101201;-89
2022/11/25 01:12:08;;;;;;;65.60;34.87;;;;;;;5.32;77.30;100252.59;4834408;29;96726;-89
2022/11/25 01:14:33;;;;;;;54.27;33.07;;;;;;;5.33;77.21;100256.94;4856328;28;96909;-90
2022/11/25 01:16:59;;;;;;;53.83;32.20;;;;;;;5.20;77.15;100236.25;4859439;28;98404;-89
2022/11/25 01:19:24;;;;;;;53.00;33.73;;;;;;;5.16;77.17;100220.72;4851150;28;101224;-91
2022/11/25 01:21:50;;;;;;;61.53;34.30;;;;;;;5.34;77.50;100259.50;4872004;28;97314;-89
2022/11/25 01:24:16;;;;;;;63.23;34.83;;;;;;;5.39;77.16;100255.09;4866628;28;97187;-89
2022/11/25 01:26:43;;;;;;;56.50;34.10;;;;;;;5.39;77.21;100251.63;4859863;28;98612;-89
2022/11/25 01:29:17;;;;;;;62.33;34.83;;;;;;;5.57;76.56;100259.16;4840153;29;102011;-89
2022/11/25 01:31:43;;;;;;;61.80;34.27;;;;;;;5.34;77.09;100245.63;4851577;29;97476;-90
2022/11/25 01:34:20;;;;;;;64.93;35.33;;;;;;;5.39;77.31;100260.28;4860001;29;96909;-89
2022/11/25 01:36:45;;;;;;;62.93;34.23;;;;;;;5.25;77.70;100240.53;4836871;28;101694;-90
2022/11/25 01:39:23;;;;;;;62.23;34.03;;;;;;;5.47;77.52;100264.53;4841851;29;101182;-89
2022/11/25 01:41:49;;;;;;;63.07;35.30;;;;;;;5.39;77.71;100264.66;4848781;28;97147;-89
2022/11/25 01:44:20;;;;;;;57.33;32.93;;;;;;;5.30;77.88;100241.34;4859827;29;96928;-88
2022/11/25 01:46:48;;;;;;;59.27;34.47;;;;;;;5.40;77.75;100263.75;4856070;28;101653;-90
2022/11/25 01:49:26;;;;;;;58.67;35.67;;;;;;;5.40;77.57;100264.59;4860179;28;98374;-90
2022/11/25 01:52:02;;;;;;;58.63;33.47;;;;;;;5.44;77.82;100258.50;4856617;29;96851;-89
2022/11/25 01:54:31;;;;;;;67.63;35.57;;;;;;;5.42;77.61;100255.03;4856488;28;96855;-90
2022/11/25 01:57:04;;;;;;;70.03;35.47;;;;;;;5.42;77.46;100256.78;4876820;28;100967;-90
2022/11/25 01:59:33;;;;;;;62.83;35.23;;;;;;;5.54;76.95;100271.38;4843142;29;101253;-89
2022/11/25 02:01:59;;;;;;;66.10;38.57;;;;;;;5.58;76.79;100258.28;4840355;28;96883;-89
2022/11/25 02:04:28;;;;;;;67.97;37.97;;;;;;;5.55;76.48;100244.44;4872280;28;97685;-89
2022/11/25 02:06:57;;;;;;;73.73;39.90;;;;;;;5.58;76.28;100234.84;4870450;28;101018;-89
2022/11/25 02:09:22;;;;;;;73.60;40.13;;;;;;;5.79;75.88;100245.81;4832870;28;100348;-90
2022/11/25 02:11:48;;;;;;;74.93;40.27;;;;;;;5.79;75.76;100251.03;4862590;29;96597;-90
2022/11/25 02:14:14;;;;;;;71.50;40.80;;;;;;;5.68;75.46;100230.38;4866145;28;96792;-90
2022/11/25 02:16:40;;;;;;;76.80;41.93;;;;;;;5.59;76.13;100235.72;4854166;29;101247;-90
2022/11/25 02:19:15;;;;;;;79.23;43.20;;;;;;;5.55;76.32;100231.44;4857118;28;101587;-90
2022/11/25 02:21:46;;;;;;;74.60;42.83;;;;;;;5.66;76.02;100248.63;4844844;29;98881;-90
2022/11/25 02:24:26;;;;;;;83.80;44.93;;;;;;;5.48;76.35;100233.28;4840839;28;96714;-90
2022/11/25 02:26:52;;;;;;;81.13;44.13;;;;;;;5.60;75.70;100243.50;4846606;29;100995;-90
2022/11/25 02:29:17;;;;;;;80.43;43.87;;;;;;;5.54;76.06;100266.19;4840215;29;101461;-90
2022/11/25 02:31:43;;;;;;;78.07;42.17;;;;;;;5.31;76.94;100250.88;4863831;28;96717;-90
2022/11/25 02:34:09;;;;;;;78.77;44.43;;;;;;;5.39;77.32;100264.66;4853640;28;96943;-91
2022/11/25 02:36:35;;;;;;;84.30;44.17;;;;;;;5.26;77.31;100248.31;4866104;28;98300;-90
2022/11/25 02:39:01;;;;;;;75.70;42.27;;;;;;;5.32;76.80;100256.03;4852686;28;101214;-89
2022/11/25 02:41:39;;;;;;;80.57;42.20;;;;;;;5.29;76.94;100252.63;4855131;28;96838;-90
2022/11/25 02:44:05;;;;;;;84.40;42.07;;;;;;;5.50;76.81;100277.50;4859220;28;97034;-90
2022/11/25 02:46:31;;;;;;;76.07;41.73;;;;;;;5.37;77.23;100254.25;4831061;28;101242;-90
2022/11/25 02:49:00;;;;;;;76.87;42.47;;;;;;;5.46;77.27;100271.47;4847114;28;100394;-90
2022/11/25 02:51:30;;;;;;;72.70;40.23;;;;;;;5.36;76.82;100249.94;4848846;28;96696;-92
2022/11/25 02:53:58;;;;;;;82.27;41.73;;;;;;;5.50;76.88;100265.38;4834855;28;96937;-90
2022/11/25 02:56:28;;;;;;;80.63;43.30;;;;;;;5.39;76.36;100243.81;4834609;28;101388;-89
2022/11/25 02:58:54;;;;;;;80.07;42.43;;;;;;;5.33;76.45;100238.72;4844859;28;101207;-91
2022/11/25 03:01:19;;;;;;;90.00;44.20;;;;;;;5.43;76.74;100256.75;4836596;28;96829;-91
2022/11/25 03:03:48;;;;;;;85.77;46.77;;;;;;;5.40;76.47;100251.59;4849620;28;97482;-90
2022/11/25 03:06:14;;;;;;;87.87;46.83;;;;;;;5.38;75.98;100240.38;4858417;28;99842;-90
2022/11/25 03:08:40;;;;;;;86.37;47.07;;;;;;;5.41;76.27;100250.72;4855233;28;100927;-90
2022/11/25 03:11:08;;;;;;;92.70;47.73;;;;;;;5.44;75.25;100219.44;4844214;28;97036;-89
2022/11/25 03:13:34;;;;;;;90.43;47.63;;;;;;;5.39;75.52;100251.63;4831966;29;96959;-90
2022/11/25 03:16:00;;;;;;;88.60;47.50;;;;;;;5.45;75.72;100259.34;4844531;28;99840;-90
2022/11/25 03:18:26;;;;;;;95.47;52.27;;;;;;;5.68;75.28;100280.72;4845819;28;101461;-90
2022/11/25 03:20:53;;;;;;;93.97;50.93;;;;;;;5.61;75.64;100276.50;4860110;28;96817;-90
2022/11/25 03:23:18;;;;;;;86.93;46.60;;;;;;;5.54;75.58;100280.06;4868169;28;97459;-90
2022/11/25 03:25:44;;;;;;;93.47;49.70;;;;;;;5.21;75.74;100237.13;4882289;28;100005;-91
2022/11/25 03:28:09;;;;;;;86.10;46.30;;;;;;;5.59;75.88;100269.59;4852785;28;100416;-91
2022/11/25 03:30:35;;;;;;;81.90;45.73;;;;;;;5.71;75.36;100273.75;4847007;28;96772;-89
2022/11/25 03:33:02;;;;;;;81.20;43.80;;;;;;;5.44;75.07;100253.28;4845964;28;97396;-90
2022/11/25 03:35:28;;;;;;;78.60;42.10;;;;;;;5.36;75.23;100238.66;4860250;28;100392;-89
2022/11/25 03:37:54;;;;;;;73.40;41.63;;;;;;;5.67;75.06;100276.41;4834874;28;101616;-90
2022/11/25 03:40:20;;;;;;;78.17;43.27;;;;;;;5.31;75.63;100251.72;4860595;28;97238;-89
2022/11/25 03:42:45;;;;;;;75.17;42.30;;;;;;;5.57;75.73;100280.00;4845611;28;97084;-90
2022/11/25 03:45:12;;;;;;;77.13;42.07;;;;;;;5.49;75.61;100275.78;4864892;28;101225;-90
2022/11/25 03:47:42;;;;;;;70.83;41.00;;;;;;;5.36;75.89;100265.56;4841812;28;101481;-90
2022/11/25 03:50:09;;;;;;;81.63;42.57;;;;;;;5.56;75.02;100261.81;4837051;29;96716;-90
2022/11/25 03:52:35;;;;;;;67.57;40.30;;;;;;;5.61;75.11;100280.81;4840505;28;97270;-90
2022/11/25 03:55:01;;;;;;;79.00;42.87;;;;;;;5.68;75.25;100279.88;4840109;29;101205;-90
2022/11/25 03:57:30;;;;;;;73.37;41.10;;;;;;;5.55;75.57;100300.00;4860548;28;101591;-91
2022/11/25 03:59:56;;;;;;;79.33;40.00;;;;;;;5.45;76.46;100301.00;4857642;28;96870;-90
2022/11/25 04:02:22;;;;;;;73.13;40.87;;;;;;;5.24;76.70;100275.28;4842898;29;96931;-91
2022/11/25 04:04:48;;;;;;;76.17;42.27;;;;;;;5.39;76.68;100294.13;4829038;28;100217;-89
2022/11/25 04:07:16;;;;;;;76.00;41.53;;;;;;;5.52;76.08;100302.63;4857512;28;101110;-89
2022/11/25 04:09:41;;;;;;;77.27;45.63;;;;;;;5.46;76.04;100294.91;4862662;28;96891;-90
2022/11/25 04:14:58;;;;;;;114.63;54.13;;;;;;;5.44;76.76;100294.94;4850721;28;100422;-90
2022/11/25 04:17:23;;;;;;;98.43;50.50;;;;;;;5.47;76.62;100280.16;4843445;28;100916;-90
2022/11/25 04:19:50;;;;;;;101.03;50.47;;;;;;;5.55;76.80;100297.38;4845016;29;96780;-90
2022/11/25 04:22:16;;;;;;;91.30;47.13;;;;;;;5.56;76.48;100287.84;4845242;28;96944;-89
2022/11/25 04:24:43;;;;;;;93.63;47.27;;;;;;;5.60;76.57;100305.16;4856664;28;101553;-90
2022/11/25 04:27:12;;;;;;;75.93;40.33;;;;;;;5.71;76.01;100303.25;4851469;28;101747;-90
2022/11/25 04:29:37;;;;;;;65.60;38.37;;;;;;;5.38;76.28;100252.50;4843277;29;97700;-90
2022/11/25 04:32:03;;;;;;;69.93;38.13;;;;;;;5.57;76.37;100295.63;4859325;28;96694;-90
2022/11/25 04:34:29;;;;;;;61.07;36.10;;;;;;;5.57;76.21;100294.78;4847281;28;100081;-90
2022/11/25 04:36:54;;;;;;;65.67;37.67;;;;;;;5.66;76.10;100298.09;4870729;28;100191;-90
2022/11/25 04:39:20;;;;;;;62.07;36.17;;;;;;;5.58;76.65;100306.91;4866975;28;97349;-89
2022/11/25 04:42:30;;;;;;;66.93;36.93;;;;;;;5.58;77.13;100304.28;4854476;28;97692;-90
2022/11/25 04:44:35;;;;;;;73.70;38.60;;;;;;;5.52;76.58;100287.00;4849094;28;100269;-90
2022/11/25 04:47:01;;;;;;;74.17;40.70;;;;;;;5.42;76.47;100248.97;4849564;29;99529;-90
2022/11/25 04:49:26;;;;;;;61.50;37.13;;;;;;;5.48;76.17;100253.25;4844946;28;96720;-90
2022/11/25 04:51:52;;;;;;;63.47;38.50;;;;;;;5.81;75.76;100302.22;4851202;29;97433;-90
2022/11/25 04:54:17;;;;;;;59.93;34.57;;;;;;;5.62;75.96;100265.19;4855173;28;101472;-90
2022/11/25 04:56:44;;;;;;;65.17;37.13;;;;;;;5.79;76.05;100293.59;4854386;28;101659;-90
2022/11/25 05:01:54;;;;;;;62.37;35.30;;;;;;;5.68;76.51;100293.75;4862145;28;96957;-90
2022/11/25 05:04:27;;;;;;;59.90;34.63;;;;;;;5.68;76.18;100296.34;4845385;28;101759;-92
2022/11/25 05:06:53;;;;;;;64.70;35.80;;;;;;;5.51;76.41;100269.69;4851046;29;100657;-91
2022/11/25 05:09:22;;;;;;;65.87;36.07;;;;;;;5.65;76.76;100305.94;4848297;28;96783;-90
2022/11/25 05:11:57;;;;;;;66.93;38.53;;;;;;;5.54;77.17;100287.00;4843914;28;96876;-89
2022/11/25 05:14:24;;;;;;;67.17;35.33;;;;;;;5.70;76.65;100311.06;4866767;28;98169;-90
2022/11/25 05:16:50;;;;;;;72.70;39.13;;;;;;;5.74;76.95;100310.16;4842717;29;101105;-91
2022/11/25 05:19:16;;;;;;;66.63;37.43;;;;;;;5.60;76.29;100266.94;4862118;28;96783;-90
2022/11/25 05:21:42;;;;;;;63.23;36.13;;;;;;;6.00;75.86;100308.06;4847231;28;96743;-90
2022/11/25 05:24:08;;;;;;;66.83;35.30;;;;;;;5.92;75.88;100298.59;4845313;28;101465;-92
2022/11/25 05:26:35;;;;;;;66.73;36.37;;;;;;;5.89;75.62;100283.88;4846790;28;100684;-91
2022/11/25 05:29:01;;;;;;;65.90;36.30;;;;;;;6.08;75.23;100308.81;4847341;28;96823;-91
2022/11/25 05:31:28;;;;;;;62.63;34.97;;;;;;;6.00;75.48;100309.81;4853654;28;97161;-90
2022/11/25 05:33:54;;;;;;;64.07;34.50;;;;;;;5.80;75.77;100294.44;4865445;28;98513;-89
2022/11/25 05:36:21;;;;;;;65.30;35.40;;;;;;;5.84;75.82;100311.75;4858910;28;99542;-91
2022/11/25 05:38:48;;;;;;;68.07;36.07;;;;;;;6.01;75.24;100321.94;4871642;28;96350;-90
2022/11/25 05:41:21;;;;;;;61.10;35.13;;;;;;;5.89;75.65;100322.97;4842719;28;96874;-95
2022/11/25 05:43:49;;;;;;;65.03;35.60;;;;;;;5.65;76.18;100309.41;4859414;28;100769;-90
2022/11/25 05:46:15;;;;;;;61.00;34.60;;;;;;;5.39;76.83;100288.06;4849672;28;100134;-90
2022/11/25 05:48:54;;;;;;;59.77;34.37;;;;;;;5.24;76.83;100278.72;4857210;28;98139;-91
2022/11/25 05:51:21;;;;;;;55.70;33.83;;;;;;;5.68;77.00;100348.44;4845463;28;97259;-90
2022/11/25 05:53:47;;;;;;;64.00;35.97;;;;;;;5.63;76.88;100323.34;4855019;28;101354;-89
2022/11/25 05:56:12;;;;;;;62.07;35.00;;;;;;;5.80;76.31;100341.34;4852944;28;101608;-90
2022/11/25 05:58:59;;;;;;;60.63;35.47;;;;;;;5.77;76.41;100350.06;4831377;28;97009;-85
2022/11/25 06:01:33;;;;;;;66.03;37.20;;;;;;;5.85;76.25;100363.84;4843034;28;96958;-88
2022/11/25 06:04:00;;;;;;;65.07;35.90;;;;;;;5.69;76.18;100307.63;4834274;28;101242;-88
2022/11/25 06:06:26;;;;;;;62.73;36.47;;;;;;;5.83;76.57;100344.75;4841140;28;101470;-90
2022/11/25 06:08:52;;;;;;;62.25;35.17;;;;;;;5.79;76.13;100345.69;4836744;28;96857;-88
2022/11/25 06:11:20;;;;;;;58.97;35.53;;;;;;;5.72;77.24;100357.06;4853614;28;96857;-88
2022/11/25 06:13:45;;;;;;;59.43;35.03;;;;;;;5.71;76.56;100333.66;4842679;28;101328;-88
2022/11/25 06:16:16;;;;;;;62.33;36.73;;;;;;;5.71;76.68;100338.88;4858070;29;101472;-89
2022/11/25 06:18:44;;;;;;;64.30;36.07;;;;;;;5.54;76.94;100315.66;4845549;28;96762;-89
2022/11/25 06:21:10;;;;;;;66.37;38.83;;;;;;;5.86;76.40;100349.06;4860225;28;97960;-89
2022/11/25 06:23:37;;;;;;;63.93;34.83;;;;;;;5.76;76.70;100339.63;4842560;29;101384;-88
2022/11/25 06:26:11;;;;;;;60.80;36.47;;;;;;;5.85;76.47;100363.84;4857136;28;98709;-89
2022/11/25 06:28:37;;;;;;;67.30;35.80;;;;;;;5.95;76.57;100375.00;4834953;29;96947;-91
2022/11/25 06:31:08;;;;;;;63.57;37.83;;;;;;;5.70;76.30;100337.97;4861675;28;96826;-90
2022/11/25 06:33:42;;;;;;;65.50;34.87;;;;;;;5.57;76.83;100320.81;4863929;28;101086;-92
2022/11/25 06:36:15;;;;;;;62.67;37.20;;;;;;;5.99;75.81;100368.00;4852996;28;100033;-90
2022/11/25 06:38:42;;;;;;;70.90;39.40;;;;;;;5.86;75.27;100334.28;4855566;28;97212;-88
2022/11/25 06:41:08;;;;;;;66.10;37.80;;;;;;;6.01;75.81;100379.28;4854784;28;97273;-86
2022/11/25 06:43:33;;;;;;;72.73;40.13;;;;;;;5.83;75.62;100338.69;4858139;28;97787;-92
2022/11/25 06:46:07;;;;;;;69.80;38.60;;;;;;;5.88;75.39;100336.88;4842215;29;98786;-92
2022/11/25 06:48:33;;;;;;;58.23;36.90;;;;;;;5.94;76.03;100381.13;4861855;28;96849;-91
2022/11/25 06:51:05;;;;;;;63.13;36.87;;;;;;;5.77;76.59;100355.25;4856695;28;97273;-92
2022/11/25 06:53:32;;;;;;;70.57;39.88;;;;;;;5.88;76.16;100349.91;4873630;28;100177;-92
2022/11/25 06:56:09;;;;;;;70.50;40.40;;;;;;;5.86;76.29;100373.38;4861084;28;101486;-92
2022/11/25 06:58:36;;;;;;;72.70;41.10;;;;;;;5.80;76.37;100364.78;4869923;28;97339;-92
2022/11/25 07:01:13;;;;;;;68.40;39.83;;;;;;;5.56;75.88;100308.69;4849944;28;97192;-92
2022/11/25 07:03:42;;;;;;;79.03;42.73;;;;;;;5.96;75.71;100366.31;4879242;28;101616;-94
2022/11/25 07:06:08;;;;;;;79.90;44.80;;;;;;;5.77;75.50;100324.00;4859777;28;97954;-92
2022/11/25 07:08:34;;;;;;;78.50;42.17;;;;;;;5.71;76.09;100346.69;4860418;28;97376;-93
2022/11/25 07:11:21;;;;;;;75.70;42.23;;;;;;;5.77;77.11;100386.53;4854782;28;97056;-92
2022/11/25 07:13:47;;;;;;;74.10;42.43;;;;;;;5.39;77.16;100327.97;4863978;28;98473;-92
2022/11/25 07:16:13;;;;;;;73.30;40.53;;;;;;;5.57;77.58;100375.50;4862820;28;101162;-92
2022/11/25 07:18:39;;;;;;;76.67;41.93;;;;;;;5.79;77.38;100409.94;4859491;28;97256;-92
2022/11/25 07:21:08;;;;;;;87.47;43.27;;;;;;;5.60;77.00;100352.03;4860312;28;98222;-92
2022/11/25 07:23:34;;;;;;;100.10;45.87;;;;;;;6.00;77.03;100401.88;4840705;29;101184;-92
2022/11/25 07:26:02;;;;;;;89.07;44.00;;;;;;;5.78;77.91;100393.44;4841858;28;101222;-92
2022/11/25 07:28:27;;;;;;;95.00;45.20;;;;;;;5.79;77.00;100366.53;4875368;28;97658;-92
2022/11/25 07:30:53;;;;;;;96.30;45.57;;;;;;;6.02;76.89;100389.69;4863946;28;97302;-92
2022/11/25 07:33:18;;;;;;;98.43;46.37;;;;;;;6.16;76.72;100406.84;4850567;28;101292;-93
2022/11/25 07:35:44;;;;;;;87.30;44.20;;;;;;;5.88;76.67;100366.41;4842529;29;98685;-92
2022/11/25 07:38:09;;;;;;;89.83;45.23;;;;;;;6.00;76.75;100378.41;4864892;28;96690;-92
2022/11/25 07:40:35;;;;;;;91.87;44.93;;;;;;;5.71;77.40;100346.69;4834251;28;97167;-92
2022/11/25 07:43:00;;;;;;;85.20;42.90;;;;;;;5.79;77.74;100373.47;4858971;28;98249;-92
2022/11/25 07:45:26;;;;;;;99.37;45.27;;;;;;;6.10;77.35;100408.66;4842705;28;101645;-88
2022/11/25 07:48:05;;;;;;;96.63;47.17;;;;;;;6.00;76.91;100386.25;4852595;28;96898;-86
2022/11/25 07:50:31;;;;;;;91.27;45.43;;;;;;;6.05;77.72;100412.22;4848208;28;97717;-87
2022/11/25 07:52:57;;;;;;;87.20;43.37;;;;;;;6.01;78.25;100411.41;4844586;28;101267;-86
2022/11/25 07:55:22;;;;;;;91.73;43.70;;;;;;;5.97;78.23;100398.47;4838859;28;101391;-86
2022/11/25 07:57:48;;;;;;;88.20;43.67;;;;;;;6.00;78.75;100409.69;4840507;28;96818;-86
2022/11/25 08:00:14;;;;;;;91.70;42.60;;;;;;;6.05;78.29;100412.22;4841466;28;96983;-85
2022/11/25 08:02:39;;;;;;;86.30;42.73;;;;;;;6.17;78.20;100416.38;4842379;28;101609;-91
2022/11/25 08:05:05;;;;;;;93.27;43.20;;;;;;;6.19;77.74;100415.50;4848763;28;101401;-87
2022/11/25 08:07:31;;;;;;;84.80;42.00;;;;;;;6.11;77.59;100394.78;4850328;28;97296;-89
2022/11/25 08:09:56;;;;;;;89.87;43.50;;;;;;;6.09;77.85;100393.06;4849491;28;96930;-89
2022/11/25 08:12:21;;;;;;;84.77;42.57;;;;;;;6.14;78.31;100422.53;4846796;28;99958;-86
2022/11/25 08:14:47;;;;;;;90.17;45.37;;;;;;;6.21;78.28;100436.34;4855790;28;101168;-89
2022/11/25 08:17:12;;;;;;;77.03;41.20;;;;;;;6.06;78.51;100407.00;4860669;28;96814;-88
2022/11/25 08:19:39;;;;;;;82.90;41.10;;;;;;;6.33;77.89;100413.53;4860892;28;97235;-88
2022/11/25 08:22:05;;;;;;;88.83;42.23;;;;;;;6.44;77.14;100410.78;4849281;28;101252;-88
2022/11/25 08:24:30;;;;;;;119.50;55.93;;;;;;;6.39;77.71;100412.59;4845320;28;100894;-90
2022/11/25 08:27:00;;;;;;;128.17;62.90;;;;;;;6.51;77.43;100425.44;4845875;29;97276;-88
2022/11/25 08:29:25;;;;;;;214.03;88.43;;;;;;;6.43;77.47;100416.00;4841608;28;97441;-88
2022/11/25 08:31:51;;;;;;;175.57;74.87;;;;;;;6.21;77.67;100365.97;4840998;29;101431;-88
2022/11/25 08:34:19;;;;;;;229.97;105.10;;;;;;;6.55;77.64;100408.88;4846079;28;98713;-87
2022/11/25 08:36:46;;;;;;;197.73;93.55;;;;;;;6.51;78.38;100419.34;4842127;28;96854;-88
2022/11/25 08:39:11;;;;;;;142.73;72.07;;;;;;;6.66;78.25;100405.19;4863248;28;97259;-88
2022/11/25 08:41:37;;;;;;;95.90;47.90;;;;;;;7.06;77.56;100397.53;4848260;28;101069;-89
2022/11/25 08:44:06;;;;;;;80.73;37.93;;;;;;;7.45;76.62;100400.31;4839266;28;99838;-88
2022/11/25 08:46:35;;;;;;;68.47;36.30;;;;;;;7.42;76.20;100382.94;4837087;29;96824;-89
2022/11/25 08:49:01;;;;;;;75.53;42.55;;;;;;;7.72;76.09;100431.09;4830186;28;97601;-87
2022/11/25 08:51:28;;;;;;;63.97;35.63;;;;;;;7.68;75.86;100424.22;4841521;28;99804;-88
2022/11/25 08:53:54;;;;;;;60.83;32.67;;;;;;;7.53;76.42;100403.59;4859796;28;99844;-87
2022/11/25 08:56:21;;;;;;;56.70;30.33;;;;;;;7.58;75.88;100399.16;4856405;28;97338;-88
2022/11/25 08:58:50;;;;;;;52.20;30.80;;;;;;;7.72;75.55;100414.53;4843457;28;96860;-87
2022/11/25 09:01:16;;;;;;;58.33;32.20;;;;;;;7.66;75.50;100414.69;4840614;28;101301;-88
2022/11/25 09:03:45;;;;;;;56.83;30.98;;;;;;;7.79;75.63;100438.78;4858890;28;97955;-89
2022/11/25 09:06:11;;;;;;;54.53;30.83;;;;;;;7.36;75.77;100380.44;4838426;28;97622;-91
2022/11/25 09:08:38;;;;;;;62.55;33.25;;;;;;;7.65;75.73;100431.22;4840735;28;97277;-89
2022/11/25 09:11:04;;;;;;;55.40;33.08;;;;;;;7.72;75.47;100445.91;4838407;28;101036;-88
2022/11/25 09:13:29;;;;;;;60.20;32.30;;;;;;;7.77;74.95;100437.97;4844705;28;101904;-87
2022/11/25 09:15:56;;;;;;;51.28;30.17;;;;;;;7.55;75.51;100411.41;4859296;28;96857;-88
2022/11/25 09:18:25;;;;;;;52.97;32.33;;;;;;;7.89;74.92;100442.94;4860633;28;96961;-89
2022/11/25 09:20:51;;;;;;;55.72;32.17;;;;;;;7.96;74.91;100436.69;4843603;28;100344;-87
2022/11/25 09:23:18;;;;;;;57.50;33.00;;;;;;;7.69;74.57;100394.56;4844192;28;100008;-89
2022/11/25 09:25:58;;;;;;;63.17;35.70;;;;;;;7.72;74.30;100385.81;4842412;28;97867;-88
2022/11/25 09:28:25;;;;;;;59.47;33.47;;;;;;;7.98;74.10;100423.59;4843592;28;96840;-88
2022/11/25 09:30:51;;;;;;;54.65;32.65;;;;;;;7.80;73.79;100391.72;4840412;28;101477;-88
2022/11/25 09:33:17;;;;;;;55.90;33.58;;;;;;;8.00;74.08;100442.69;4840311;29;101687;-88
2022/11/25 09:35:43;;;;;;;57.72;33.28;;;;;;;7.69;74.66;100397.19;4855712;28;96932;-88
2022/11/25 09:38:09;;;;;;;57.85;34.22;;;;;;;7.89;74.18;100407.22;4872812;28;96936;-87
2022/11/25 09:40:44;;;;;;;57.13;33.53;;;;;;;8.09;74.42;100419.00;4871597;28;98178;-87
2022/11/25 09:46:40;;;;;;;89.55;44.25;;;;;;;8.19;73.76;100427.47;4820306;28;98671;-88
2022/11/25 09:49:24;;;;;;;83.80;41.80;;;;;;;8.22;74.26;100438.72;4863568;28;96770;-88
2022/11/25 09:52:02;;;;;;;72.10;38.25;;;;;;;8.39;73.34;100434.00;4869870;28;99975;-89
2022/11/25 09:55:03;;;;;;;61.13;33.90;;;;;;;8.26;73.52;100435.16;4855807;28;101867;-89
2022/11/25 09:57:49;;;;;;;62.90;34.10;;;;;;;8.20;73.91;100432.66;4846697;28;96806;-87
2022/11/25 10:00:17;;;;;;;59.80;33.78;;;;;;;8.22;74.35;100430.88;4849254;28;98786;-89
2022/11/25 10:02:43;;;;;;;49.30;29.02;;;;;;;8.31;73.64;100441.13;4860029;28;101538;-93
2022/11/25 10:05:15;;;;;;;51.13;27.58;;;;;;;8.29;73.81;100431.59;4865663;28;101635;-87
2022/11/25 10:07:47;;;;;;;44.53;28.55;;;;;;;8.16;73.37;100413.56;4860926;28;97187;-89
2022/11/25 10:10:25;;;;;;;51.88;28.80;;;;;;;8.19;73.41;100419.63;4849751;28;96934;-88
2022/11/25 10:12:52;;;;;;;48.53;27.65;;;;;;;8.22;73.54;100422.19;4835311;28;100771;-88
2022/11/25 10:15:24;;;;;;;47.72;27.40;;;;;;;8.27;73.39;100436.03;4867851;28;96917;-88
2022/11/25 10:18:02;;;;;;;52.45;27.17;;;;;;;8.25;73.74;100416.88;4856451;28;96804;-87
2022/11/25 10:20:37;;;;;;;46.47;27.85;;;;;;;8.30;73.66;100439.41;4838241;28;96934;-87
2022/11/25 10:23:04;;;;;;;46.90;29.30;;;;;;;8.25;73.84;100429.97;4856357;28;98479;-89
2022/11/25 10:25:34;;;;;;;52.15;28.65;;;;;;;8.27;73.36;100409.88;4869302;28;98296;-89
2022/11/25 10:28:19;;;;;;;43.97;25.55;;;;;;;8.35;73.60;100437.56;4856863;28;96795;-93
2022/11/25 10:30:49;;;;;;;54.75;30.10;;;;;;;8.42;73.55;100434.84;4849660;28;96859;-92
2022/11/25 10:33:27;;;;;;;57.10;29.60;;;;;;;8.33;73.01;100417.56;4841697;28;101396;-91
2022/11/25 10:36:05;;;;;;;61.75;33.00;;;;;;;8.42;73.57;100432.22;4858383;28;101257;-96
2022/11/25 10:39:04;;;;;;;;;;;;;;;;;;;;;
2022/11/25 10:42:16;;;;;;;;;;;;;;;;;;;;;
2022/11/25 10:44:50;;;;;;;80.00;43.55;;;;;;;8.15;73.59;100372.63;4860377;28;98832;-96
2022/11/25 10:47:35;;;;;;;49.63;29.25;;;;;;;8.50;73.20;100415.44;4860947;28;101083;-94
2022/11/25 10:50:17;;;;;;;47.65;27.80;;;;;;;8.40;73.68;100398.22;4843733;28;96851;-94
2022/11/25 10:52:54;;;;;;;40.40;23.67;;;;;;;8.58;73.07;100423.09;4857465;28;98015;-93
2022/11/25 10:55:24;;;;;;;43.92;25.10;;;;;;;8.32;73.11;100376.59;4859405;28;101248;-95
2022/11/25 10:57:58;;;;;;;39.15;22.75;;;;;;;8.53;73.25;100407.53;4845513;28;101325;-95
2022/11/25 11:01:06;;;;;;;34.08;22.35;;;;;;;8.53;72.93;100411.91;4874988;28;96831;-96
2022/11/25 11:03:54;;;;;;;40.47;22.98;;;;;;;8.46;73.09;100387.63;4857618;28;115590;-95
2022/11/25 11:06:34;;;;;;;33.28;22.38;;;;;;;8.77;73.36;100444.47;4838707;28;100696;-95
2022/11/25 11:09:30;;;;;;;27.23;17.30;;;;;;;8.74;73.64;100442.78;4861891;28;101855;-92
2022/11/25 11:11:56;;;;;;;29.65;16.05;;;;;;;8.75;72.75;100441.00;4858516;28;96858;-91
2022/11/25 11:14:21;;;;;;;27.98;16.80;;;;;;;8.80;73.05;100436.53;4852118;28;96770;-92
2022/11/25 11:16:52;;;;;;;28.77;15.80;;;;;;;8.83;72.76;100444.31;4848885;28;101439;-90
2022/11/25 11:19:29;;;;;;;28.50;17.37;;;;;;;8.60;72.05;100400.38;4846673;28;100927;-91
2022/11/25 11:21:57;;;;;;;26.70;16.13;;;;;;;8.88;72.87;100442.44;4841448;29;96870;-88
2022/11/25 11:24:25;;;;;;;32.42;17.85;;;;;;;8.80;71.99;100421.69;4842796;28;96770;-92
2022/11/25 11:27:15;;;;;;;28.08;18.38;;;;;;;8.88;72.29;100444.19;4836791;28;102202;-93
2022/11/25 11:29:41;;;;;;;28.95;18.02;;;;;;;8.90;72.64;100442.38;4858813;28;101600;-93
2022/11/25 11:32:22;;;;;;;30.15;15.43;;;;;;;8.74;72.24;100392.19;4842328;28;96916;-94
2022/11/25 11:34:51;;;;;;;24.58;15.93;;;;;;;8.95;72.26;100416.94;4867050;28;96821;-93
2022/11/25 11:37:16;;;;;;;29.35;14.82;;;;;;;9.06;71.87;100425.38;4879935;28;98667;-91